Time;durP1;ratioP1;P1;durP2;ratioP2;P2;SDS_P1;SDS_P2;PMS_P1;PMS_P2;Temp;Humidity;BMP_temperature;BMP_pressure;BME280_temperature;BME280_humidity;BME280_pressure;Samples;Min_cycle;Max_cycle;Signal;HPM_P1;HPM_P2
2022/05/05 07:03:15;;;;;;;;;10.25;8.50;;;;;18.10;51.41;101923.81;5112491;27;45483;-75
2022/05/05 07:05:41;;;;;;;;;7.50;5.50;;;;;18.28;51.53;101930.59;5121773;27;45523;-75
2022/05/05 07:08:06;;;;;;;;;6.50;6.50;;;;;18.55;51.36;101924.31;5125399;27;45805;-76
2022/05/05 07:13:15;;;;;;;;;9.75;9.75;;;;;19.30;50.74;101935.25;5124333;27;45764;-77
2022/05/05 07:15:41;;;;;;;;;5.00;5.00;;;;;19.70;50.72;101928.78;5124301;27;50410;-77
2022/05/05 07:18:06;;;;;;;;;5.50;5.50;;;;;20.07;49.69;101932.41;5122283;27;45338;-76
2022/05/05 07:20:32;;;;;;;;;7.75;6.25;;;;;20.42;49.13;101939.63;5118190;27;45654;-76
2022/05/05 07:22:57;;;;;;;;;5.00;5.00;;;;;20.76;48.62;101942.38;5117059;27;47075;-75
2022/05/05 07:25:24;;;;;;;;;4.00;4.00;;;;;21.08;48.21;101946.25;5116972;27;45721;-74
2022/05/05 07:27:49;;;;;;;;;8.75;7.50;;;;;21.37;48.37;101940.31;5124555;27;45491;-73
2022/05/05 07:30:15;;;;;;;;;4.67;4.67;;;;;21.68;47.92;101945.94;5121472;27;45828;-73
2022/05/05 07:32:41;;;;;;;;;3.67;3.67;;;;;21.95;47.06;101939.22;5124318;27;45451;-74
2022/05/05 07:35:07;;;;;;;;;6.00;6.00;;;;;22.23;46.46;101941.41;5114574;27;45568;-74
2022/05/05 07:37:32;;;;;;;;;5.00;5.00;;;;;22.45;46.87;101955.81;5123621;27;45638;-77
2022/05/05 07:39:58;;;;;;;;;6.00;4.00;;;;;22.67;46.24;101945.88;5126840;27;45659;-74
2022/05/05 07:42:23;;;;;;;;;6.67;5.33;;;;;22.81;46.02;101955.50;5129722;27;45363;-73
2022/05/05 07:44:49;;;;;;;;;4.67;4.67;;;;;22.95;45.63;101965.97;5116503;27;45401;-73
2022/05/05 07:47:14;;;;;;;;;5.00;5.00;;;;;23.08;45.24;101954.91;5124192;27;48268;-76
2022/05/05 07:49:39;;;;;;;;;7.00;5.33;;;;;23.19;45.32;101963.94;5125012;27;45837;-75
2022/05/05 07:52:05;;;;;;;;;7.00;5.00;;;;;23.28;45.19;101965.81;5122502;27;51562;-75
2022/05/05 07:54:42;;;;;;;;;7.33;6.00;;;;;23.38;44.91;101961.31;5123019;27;46781;-75
2022/05/05 07:57:11;;;;;;;;;7.67;6.33;;;;;23.51;44.47;101963.78;5126489;27;45608;-74
2022/05/05 07:59:37;;;;;;;;;5.67;5.33;;;;;23.59;44.54;101967.66;5126727;27;45580;-75
2022/05/05 08:02:03;;;;;;;;;5.67;5.67;;;;;23.68;44.23;101969.53;5120046;27;45483;-73
2022/05/05 08:04:30;;;;;;;;;4.00;4.00;;;;;23.78;44.02;101972.22;5115573;27;45700;-75
2022/05/05 08:06:55;;;;;;;;;9.00;6.00;;;;;23.89;44.35;101966.69;5124248;27;45545;-75
2022/05/05 08:09:20;;;;;;;;;6.00;5.00;;;;;23.97;43.96;101959.69;5119792;27;45416;-75
2022/05/05 08:11:46;;;;;;;;;6.33;5.00;;;;;24.02;43.73;101969.13;5118063;27;45564;-74
2022/05/05 08:14:11;;;;;;;;;4.00;4.00;;;;;24.04;43.92;101972.53;5105422;27;45520;-75
2022/05/05 08:16:37;;;;;;;;;5.00;5.00;;;;;24.08;44.11;101981.28;5099690;27;45535;-73
2022/05/05 08:19:02;;;;;;;;;4.67;4.00;;;;;24.11;43.66;101978.28;5106776;27;45417;-73
2022/05/05 08:21:28;;;;;;;;;6.00;4.67;;;;;24.13;43.72;101976.31;5096322;27;45400;-73
2022/05/05 08:29:21;;;;;;;;;5.33;5.33;;;;;24.23;43.67;101975.44;5106855;27;45560;-76
2022/05/05 08:31:46;;;;;;;;;5.00;4.00;;;;;24.25;43.54;101973.44;5105170;27;45950;-76
2022/05/05 08:34:12;;;;;;;;;5.00;5.00;;;;;24.28;43.83;101967.75;5102917;27;45885;-76
2022/05/05 08:36:37;;;;;;;;;3.00;3.00;;;;;24.30;43.75;101977.44;5105381;27;45490;-75
2022/05/05 08:39:03;;;;;;;;;7.00;7.00;;;;;24.32;43.30;101972.72;5107537;27;45409;-73
2022/05/05 08:41:30;;;;;;;;;4.00;4.00;;;;;24.33;43.63;101977.13;5102869;27;51265;-74
2022/05/05 08:43:55;;;;;;;;;4.67;4.67;;;;;24.36;43.55;101983.28;5099311;27;46122;-74
2022/05/05 08:46:25;;;;;;;;;4.67;4.00;;;;;24.37;43.83;101977.72;5099386;27;45378;-73
2022/05/05 08:48:53;;;;;;;;;5.00;4.00;;;;;24.40;43.61;101980.13;5109105;27;45893;-73
2022/05/05 08:51:19;;;;;;;;;4.00;4.00;;;;;24.44;43.79;101988.88;5102356;27;46160;-73
2022/05/05 08:53:52;;;;;;;;;4.00;4.00;;;;;24.46;43.49;101985.00;5108191;27;45390;-73
2022/05/05 08:56:17;;;;;;;;;5.67;5.33;;;;;24.51;43.65;101986.41;5096548;27;45499;-73
2022/05/05 08:58:43;;;;;;;;;5.67;4.00;;;;;24.54;43.55;101986.13;5103315;27;45404;-72
2022/05/05 09:01:08;;;;;;;;;7.67;6.00;;;;;24.56;42.95;101984.97;5108835;27;46925;-73
2022/05/05 09:03:36;;;;;;;;;11.00;8.33;;;;;24.65;41.73;101991.41;5108645;27;45442;-74
2022/05/05 09:06:01;;;;;;;;;11.00;8.67;;;;;24.76;41.63;101990.34;5109173;27;45327;-74
2022/05/05 09:08:30;;;;;;;;;13.33;10.00;;;;;24.83;41.13;101991.53;5106928;27;45661;-74
2022/05/05 09:10:57;;;;;;;;;12.00;10.00;;;;;24.87;41.14;101989.38;5100790;27;45544;-73
2022/05/05 09:13:28;;;;;;;;;9.33;9.33;;;;;24.93;40.71;101999.63;5106013;27;45490;-74
2022/05/05 09:15:54;;;;;;;;;16.00;11.33;;;;;24.94;40.34;101995.94;5100914;27;45523;-74
2022/05/05 09:18:20;;;;;;;;;8.33;8.00;;;;;24.98;40.30;102000.03;5094868;27;45457;-74
2022/05/05 09:20:47;;;;;;;;;10.67;9.33;;;;;25.00;39.91;101997.19;5104109;27;46811;-74
2022/05/05 09:23:32;;;;;;;;;10.67;10.67;;;;;25.06;40.04;101990.31;5104810;27;45400;-75
2022/05/05 09:26:05;;;;;;;;;10.33;10.33;;;;;25.09;40.17;102000.88;5094075;27;53334;-73
2022/05/05 09:28:35;;;;;;;;;15.33;14.00;;;;;25.08;40.17;102000.00;5104515;27;46573;-74
2022/05/05 09:31:10;;;;;;;;;12.00;11.67;;;;;25.08;40.00;101997.31;5105529;27;45983;-73
2022/05/05 09:33:38;;;;;;;;;13.67;10.00;;;;;25.08;39.42;102001.88;5100716;27;45414;-72
2022/05/05 09:36:06;;;;;;;;;15.00;11.67;;;;;25.02;39.60;101997.91;5095488;27;45378;-75
2022/05/05 09:38:50;;;;;;;;;11.67;9.67;;;;;24.93;39.85;102009.66;5106677;27;45485;-74
2022/05/05 09:41:26;;;;;;;;;12.67;9.33;;;;;24.85;40.01;101997.66;5099377;27;45516;-75
2022/05/05 09:43:57;;;;;;;;;9.00;9.00;;;;;24.81;40.35;102000.78;5104391;27;45385;-74
2022/05/05 09:46:22;;;;;;;;;16.33;13.00;;;;;24.79;40.33;102002.78;5101937;27;45665;-74
2022/05/05 09:48:51;;;;;;;;;14.33;11.33;;;;;24.76;40.62;101998.50;5106046;27;45496;-74
2022/05/05 09:51:16;;;;;;;;;11.00;10.00;;;;;24.76;40.66;101998.50;5100821;27;47587;-74
2022/05/05 09:59:26;;;;;;;;;10.33;8.67;;;;;24.77;40.70;101985.78;5101489;27;45398;-73
2022/05/05 10:01:54;;;;;;;;;10.33;9.67;;;;;24.78;40.91;101984.78;5102674;27;45532;-73
2022/05/05 10:04:23;;;;;;;;;13.00;11.00;;;;;24.81;40.70;101993.47;5100107;27;53592;-73
2022/05/05 10:06:49;;;;;;;;;9.67;7.67;;;;;24.82;40.94;101994.34;5094949;27;45853;-72
2022/05/05 10:09:18;;;;;;;;;8.33;8.33;;;;;24.83;41.12;101985.22;5107663;27;45612;-72
2022/05/05 10:11:45;;;;;;;;;10.00;10.00;;;;;24.84;40.75;101987.81;5095057;27;45569;-74
2022/05/05 10:14:12;;;;;;;;;11.33;10.33;;;;;24.93;40.73;101988.75;5102720;27;45941;-74
2022/05/05 10:16:39;;;;;;;;;13.00;11.00;;;;;25.00;40.50;101991.75;5101244;27;45489;-74
2022/05/05 10:19:06;;;;;;;;;10.00;10.00;;;;;25.06;40.09;101987.59;5102459;27;45494;-74
2022/05/05 10:21:56;;;;;;;;;13.00;11.33;;;;;25.09;39.71;101990.84;5101236;27;46164;-74
2022/05/05 10:24:24;;;;;;;;;12.00;12.00;;;;;25.09;39.67;101979.16;5095579;27;45459;-74
2022/05/05 10:26:51;;;;;;;;;10.33;9.33;;;;;25.15;39.84;101983.97;5109517;27;45473;-74
2022/05/05 10:29:35;;;;;;;;;10.00;7.67;;;;;25.18;39.51;101983.66;5108788;27;45523;-74
2022/05/05 10:32:18;;;;;;;;;9.33;7.00;;;;;25.15;39.47;101981.25;5103285;27;46098;-74
2022/05/05 10:34:54;;;;;;;;;10.67;10.67;;;;;25.11;39.47;101988.00;5102331;27;45747;-74
2022/05/05 10:37:22;;;;;;;;;11.00;9.33;;;;;25.09;39.43;101976.44;5099210;27;45416;-75
2022/05/05 10:39:48;;;;;;;;;9.00;9.00;;;;;25.09;39.40;101979.16;5107525;27;45661;-76
2022/05/05 10:42:20;;;;;;;;;8.33;8.33;;;;;25.08;39.73;101978.28;5100201;27;45536;-76
2022/05/05 10:45:10;;;;;;;;;11.00;8.00;;;;;25.05;39.53;101975.84;5100168;27;45385;-76
2022/05/05 10:48:01;;;;;;;;;10.00;7.67;;;;;25.03;39.39;101987.88;5100860;27;45501;-74
2022/05/05 10:50:27;;;;;;;;;8.67;7.00;;;;;25.03;38.97;101980.59;5104323;27;45501;-79
2022/05/05 10:52:53;;;;;;;;;9.00;7.00;;;;;25.08;38.89;101977.41;5106804;27;47637;-78
2022/05/05 10:55:26;;;;;;;;;8.00;8.00;;;;;25.09;38.74;101981.88;5092706;27;45483;-74
2022/05/05 10:57:53;;;;;;;;;13.67;12.33;;;;;25.13;38.99;101975.97;5102494;27;45554;-74
2022/05/05 11:00:19;;;;;;;;;9.33;8.67;;;;;25.19;39.08;101979.09;5096292;27;47497;-74
2022/05/05 11:02:56;;;;;;;;;9.00;7.67;;;;;25.18;38.95;101974.66;5102200;27;45495;-75
2022/05/05 11:05:22;;;;;;;;;8.67;8.67;;;;;25.15;38.69;101974.97;5105920;27;45817;-73
2022/05/05 11:07:51;;;;;;;;;8.00;8.00;;;;;25.15;39.12;101981.25;5107324;27;45448;-75
2022/05/05 11:10:38;;;;;;;;;9.33;8.33;;;;;25.18;39.14;101974.66;5103635;27;45724;-73
2022/05/05 11:13:04;;;;;;;;;9.00;7.00;;;;;25.20;39.32;101972.66;5109234;27;48220;-74
2022/05/05 11:21:32;;;;;;;;;8.67;6.33;;;;;25.23;39.78;101980.50;5092078;27;45726;-75
2022/05/05 11:23:59;;;;;;;;;10.67;10.67;;;;;25.30;39.10;101984.31;5103672;27;48663;-76
2022/05/05 11:26:25;;;;;;;;;10.67;10.67;;;;;25.37;39.20;101982.72;5112429;27;45408;-73
2022/05/05 11:28:51;;;;;;;;;16.33;14.00;;;;;25.41;38.55;101985.16;5098737;27;45513;-74
2022/05/05 11:31:19;;;;;;;;;12.00;11.67;;;;;25.45;38.65;101983.81;5093354;27;45339;-75
2022/05/05 11:33:55;;;;;;;;;10.00;10.00;;;;;25.46;38.59;101972.78;5102285;27;46004;-75
2022/05/05 11:36:24;;;;;;;;;12.00;11.67;;;;;25.44;38.73;101969.38;5094549;27;45429;-75
2022/05/05 11:38:51;;;;;;;;;10.67;9.67;;;;;25.45;38.66;101978.38;5109639;27;45445;-76
2022/05/05 11:41:21;;;;;;;;;17.00;11.00;;;;;25.48;38.32;101978.97;5098061;27;45533;-76
2022/05/05 11:46:32;;;;;;;;;9.00;9.00;;;;;25.49;38.14;101977.94;5095158;27;45475;-76
2022/05/05 11:48:58;;;;;;;;;12.67;11.33;;;;;25.49;37.93;101977.06;5097287;27;45448;-77
2022/05/05 11:51:25;;;;;;;;;11.00;9.33;;;;;25.50;38.29;101970.66;5104480;27;46185;-75
2022/05/05 11:54:11;;;;;;;;;12.00;12.00;;;;;25.49;38.24;101979.78;5101756;27;46151;-73
2022/05/05 11:56:42;;;;;;;;;13.00;9.00;;;;;25.48;38.31;101972.66;5108794;27;45375;-75
2022/05/05 12:02:13;;;;;;;;;13.33;11.00;;;;;25.35;38.41;101970.28;5098321;27;45534;-77
2022/05/05 12:04:40;;;;;;;;;15.00;14.00;;;;;25.27;38.41;101969.19;5100867;27;45760;-77
2022/05/05 12:07:07;;;;;;;;;10.00;9.00;;;;;25.23;38.74;101962.34;5103691;27;45409;-76
2022/05/05 12:09:33;;;;;;;;;11.00;9.33;;;;;25.20;38.80;101968.09;5099084;27;45516;-75
2022/05/05 12:12:11;;;;;;;;;15.33;11.67;;;;;25.19;39.31;101962.78;5109848;27;45516;-74
2022/05/05 12:14:45;;;;;;;;;9.67;9.67;;;;;25.18;39.02;101958.38;5099862;27;47157;-74
2022/05/05 12:17:34;;;;;;;;;11.33;9.33;;;;;25.18;39.18;101952.94;5111026;27;45440;-74
2022/05/05 12:20:05;;;;;;;;;11.33;11.33;;;;;25.18;39.28;101967.34;5100376;27;45487;-74
2022/05/05 12:22:39;;;;;;;;;13.67;12.00;;;;;25.20;39.31;101961.78;5101889;27;45734;-78
2022/05/05 12:25:14;;;;;;;;;10.67;10.67;;;;;25.25;38.76;101962.19;5099075;27;45481;-75
2022/05/05 12:28:01;;;;;;;;;9.67;9.67;;;;;25.25;39.13;101954.03;5101536;27;46084;-75
2022/05/05 12:30:34;;;;;;;;;10.67;9.33;;;;;25.23;39.38;101959.63;5106602;27;45563;-74
2022/05/05 12:33:00;;;;;;;;;10.67;10.67;;;;;25.24;39.41;101952.31;5109377;27;45504;-74
2022/05/05 12:35:52;;;;;;;;;11.67;10.00;;;;;25.26;39.63;101953.88;5098162;27;46522;-76
2022/05/05 12:38:18;;;;;;;;;9.67;9.33;;;;;25.27;39.34;101952.88;5098914;27;45813;-77
2022/05/05 12:40:46;;;;;;;;;10.67;8.00;;;;;25.26;39.67;101945.72;5103911;27;46361;-75
2022/05/05 12:43:17;;;;;;;;;8.33;8.33;;;;;25.27;39.73;101949.31;5101534;27;45567;-77
2022/05/05 12:45:43;;;;;;;;;9.33;7.00;;;;;25.28;39.73;101953.75;5106217;27;46018;-75
2022/05/05 12:48:12;;;;;;;;;11.67;11.33;;;;;25.31;39.95;101958.88;5109201;27;45436;-77
2022/05/05 12:50:48;;;;;;;;;8.00;8.00;;;;;25.34;40.43;101960.44;5107115;27;45348;-78
2022/05/05 13:01:35;;;;;;;;;8.00;8.00;;;;;25.39;40.13;101949.97;5105143;27;45499;-74
2022/05/05 13:04:08;;;;;;;;;14.00;9.33;;;;;25.44;40.09;101954.94;5107517;27;45422;-74
2022/05/05 13:06:37;;;;;;;;;5.67;5.00;;;;;25.43;39.72;101956.81;5095086;27;47440;-72
2022/05/05 13:09:08;;;;;;;;;8.33;7.33;;;;;25.45;40.42;101959.34;5110297;27;45716;-73
2022/05/05 13:11:34;;;;;;;;;10.67;9.67;;;;;25.45;40.36;101964.78;5097407;27;45785;-73
2022/05/05 13:13:59;;;;;;;;;8.00;8.00;;;;;25.44;40.08;101966.66;5099588;27;53244;-74
2022/05/05 13:16:27;;;;;;;;;7.67;6.67;;;;;25.44;40.59;101960.38;5099109;27;45566;-73
2022/05/05 13:18:53;;;;;;;;;8.00;8.00;;;;;25.44;40.31;101957.66;5097441;27;45424;-73
2022/05/05 13:21:18;;;;;;;;;10.00;8.00;;;;;25.46;40.00;101955.66;5098308;27;49545;-72
2022/05/05 13:23:43;;;;;;;;;7.00;6.00;;;;;25.46;40.17;101958.38;5101603;27;45327;-73
2022/05/05 13:26:10;;;;;;;;;11.67;10.00;;;;;25.45;40.31;101960.22;5098697;27;50192;-73
2022/05/05 13:28:36;;;;;;;;;8.67;7.67;;;;;25.46;40.57;101961.09;5103505;27;45901;-74
2022/05/05 13:31:01;;;;;;;;;9.00;9.00;;;;;25.48;40.45;101950.91;5102456;27;57458;-75
2022/05/05 13:33:26;;;;;;;;;8.00;7.00;;;;;25.49;40.42;101955.31;5104939;27;46389;-72
2022/05/05 13:35:52;;;;;;;;;7.00;7.00;;;;;25.52;40.70;101957.75;5115683;27;45794;-74
2022/05/05 13:38:18;;;;;;;;;9.00;7.33;;;;;25.55;40.53;101956.59;5126807;27;45746;-74
2022/05/05 13:40:43;;;;;;;;;8.33;8.33;;;;;25.58;40.60;101953.59;5099749;27;45531;-74
2022/05/05 13:43:09;;;;;;;;;10.00;8.33;;;;;25.59;40.56;101948.00;5095427;27;45454;-74
2022/05/05 13:45:35;;;;;;;;;10.00;8.33;;;;;25.60;40.14;101949.72;5096204;27;45384;-75
2022/05/05 13:48:01;;;;;;;;;8.00;8.00;;;;;25.62;40.41;101950.41;5104204;27;45503;-72
2022/05/05 13:50:26;;;;;;;;;8.33;8.33;;;;;25.65;40.56;101957.41;5103182;27;50263;-73
2022/05/05 13:52:51;;;;;;;;;6.33;6.33;;;;;25.66;40.47;101953.69;5108987;27;45887;-73
2022/05/05 13:55:17;;;;;;;;;11.00;8.67;;;;;25.69;40.55;101955.22;5101322;27;45808;-73
2022/05/05 13:57:43;;;;;;;;;9.33;8.00;;;;;25.70;40.35;101954.25;5101155;27;45524;-73
2022/05/05 14:00:10;;;;;;;;;7.67;7.00;;;;;25.71;40.57;101956.78;5108842;27;45635;-73
2022/05/05 14:02:35;;;;;;;;;7.67;7.67;;;;;25.71;40.70;101951.34;5103534;27;45376;-73
2022/05/05 14:05:00;;;;;;;;;7.00;5.67;;;;;25.71;40.07;101950.50;5106209;27;45433;-73
2022/05/05 14:12:55;;;;;;;;;10.00;7.00;;;;;25.70;40.61;101944.19;5104242;27;45361;-73
2022/05/05 14:15:21;;;;;;;;;9.00;7.33;;;;;25.70;41.04;101946.09;5100485;27;47263;-72
2022/05/05 14:17:47;;;;;;;;;5.33;5.33;;;;;25.71;40.38;101945.91;5111258;27;45578;-73
2022/05/05 14:20:13;;;;;;;;;6.67;4.33;;;;;25.72;40.46;101944.91;5105211;27;45550;-73
2022/05/05 14:22:40;;;;;;;;;6.33;6.33;;;;;25.73;40.58;101943.91;5103480;27;45496;-71
2022/05/05 14:25:12;;;;;;;;;10.33;7.33;;;;;25.79;40.60;101948.72;5105552;27;46245;-74
2022/05/05 14:27:38;;;;;;;;;8.00;7.00;;;;;25.86;40.36;101953.53;5099749;27;46258;-73
2022/05/05 14:30:05;;;;;;;;;6.33;6.00;;;;;25.86;40.49;101940.78;5103800;27;53229;-73
2022/05/05 14:32:30;;;;;;;;;11.00;7.33;;;;;25.90;40.56;101947.63;5095809;27;45907;-75
2022/05/05 14:34:56;;;;;;;;;8.00;6.00;;;;;25.93;40.75;101941.03;5101982;27;46757;-75
2022/05/05 14:37:21;;;;;;;;;11.33;8.33;;;;;25.94;40.43;101936.47;5101933;27;45882;-74
2022/05/05 14:39:47;;;;;;;;;20.00;12.00;;;;;25.98;38.79;101943.28;5100549;27;48360;-75
2022/05/05 14:42:12;;;;;;;;;15.00;8.33;;;;;25.99;38.24;101945.84;5101145;27;45824;-74
2022/05/05 14:44:38;;;;;;;;;10.00;8.00;;;;;25.91;36.76;101937.59;5100852;27;45555;-74
2022/05/05 14:47:05;;;;;;;;;10.00;7.33;;;;;25.78;36.24;101946.16;5101285;27;45537;-73
2022/05/05 14:49:31;;;;;;;;;7.00;7.00;;;;;25.62;36.15;101935.97;5101685;27;45492;-74
2022/05/05 14:51:56;;;;;;;;;10.33;7.00;;;;;25.55;36.61;101943.00;5101439;27;45538;-72
2022/05/05 14:54:21;;;;;;;;;8.00;6.00;;;;;25.52;36.50;101947.75;5104179;27;45933;-73
2022/05/05 14:56:47;;;;;;;;;6.67;4.00;;;;;25.49;36.62;101939.88;5105141;27;51854;-74
2022/05/05 14:59:12;;;;;;;;;6.33;6.33;;;;;25.48;36.84;101938.19;5096994;27;45425;-74
2022/05/05 15:01:37;;;;;;;;;6.67;5.00;;;;;25.52;36.69;101936.00;5106073;27;45269;-74
2022/05/05 15:04:03;;;;;;;;;6.33;6.33;;;;;25.52;37.27;101931.44;5106952;27;45433;-73
2022/05/05 15:06:29;;;;;;;;;8.00;7.67;;;;;25.55;37.15;101945.72;5107010;27;45425;-73
2022/05/05 15:08:55;;;;;;;;;8.00;8.00;;;;;25.57;37.28;101931.00;5107587;27;45740;-73
2022/05/05 15:11:20;;;;;;;;;8.00;7.33;;;;;25.63;37.34;101933.09;5099732;27;45381;-73
2022/05/05 15:13:45;;;;;;;;;6.33;5.33;;;;;25.69;37.43;101938.91;5097647;27;59636;-73
2022/05/05 15:16:11;;;;;;;;;7.67;7.00;;;;;25.74;37.67;101933.88;5099232;27;45493;-74
2022/05/05 15:18:36;;;;;;;;;5.00;5.00;;;;;25.75;37.62;101935.59;5099331;27;45490;-74
2022/05/05 15:21:02;;;;;;;;;6.33;6.33;;;;;25.77;37.34;101922.69;5094362;27;45330;-75
2022/05/05 15:23:29;;;;;;;;;6.00;6.00;;;;;25.81;37.71;101932.25;5098521;27;46985;-74
2022/05/05 15:25:55;;;;;;;;;10.00;8.33;;;;;25.86;37.55;101937.22;5105179;27;46150;-73
2022/05/05 15:28:20;;;;;;;;;10.00;7.67;;;;;25.89;37.25;101934.19;5101849;27;45314;-72
2022/05/05 15:30:46;;;;;;;;;11.00;6.33;;;;;25.87;37.76;101939.78;5103029;27;45319;-73
2022/05/05 15:33:11;;;;;;;;;8.33;7.00;;;;;25.87;37.42;101941.66;5104409;27;48068;-74
2022/05/05 15:35:36;;;;;;;;;10.00;8.00;;;;;25.87;37.56;101945.22;5104837;27;45500;-79
2022/05/05 15:38:02;;;;;;;;;11.67;8.67;;;;;25.95;37.46;101944.44;5104003;27;45439;-73
2022/05/05 15:40:27;;;;;;;;;7.67;5.67;;;;;25.98;37.67;101946.00;5102798;27;45760;-72
2022/05/05 15:42:52;;;;;;;;;10.33;8.33;;;;;25.99;37.62;101945.00;5108293;27;46314;-72
2022/05/05 15:45:18;;;;;;;;;10.33;5.67;;;;;25.99;37.43;101950.44;5098030;27;45718;-73
2022/05/05 15:47:43;;;;;;;;;9.00;8.67;;;;;25.97;37.78;101947.00;5106026;27;45629;-72
2022/05/05 15:50:09;;;;;;;;;6.67;6.67;;;;;25.97;37.79;101947.00;5099766;27;45626;-72
2022/05/05 15:52:38;;;;;;;;;10.33;6.33;;;;;25.96;37.77;101950.75;5101198;27;46144;-72
2022/05/05 15:55:06;;;;;;;;;9.00;8.00;;;;;25.73;38.03;101948.47;5104349;27;45496;-70
2022/05/05 15:57:32;;;;;;;;;10.33;7.00;;;;;25.45;38.48;101948.47;5103700;27;46109;-73
2022/05/05 15:59:58;;;;;;;;;8.00;6.67;;;;;25.21;38.94;101947.19;5099411;27;45390;-72
2022/05/05 16:02:24;;;;;;;;;6.00;6.00;;;;;25.05;39.03;101943.25;5094598;27;46755;-71
2022/05/05 16:04:49;;;;;;;;;6.67;6.00;;;;;25.08;39.53;101948.41;5104197;27;45512;-72
2022/05/05 16:07:15;;;;;;;;;9.33;6.67;;;;;25.13;39.29;101951.53;5106149;27;45352;-72
2022/05/05 16:09:42;;;;;;;;;7.33;6.00;;;;;25.19;39.54;101962.78;5104836;27;45356;-72
2022/05/05 16:12:08;;;;;;;;;7.00;6.67;;;;;25.24;39.13;101960.47;5110289;27;45798;-72
2022/05/05 16:14:33;;;;;;;;;8.00;5.33;;;;;25.24;39.48;101955.03;5101795;27;45431;-72
2022/05/05 16:16:59;;;;;;;;;7.33;6.00;;;;;25.26;39.62;101959.31;5103607;27;45564;-73
2022/05/05 16:19:26;;;;;;;;;9.33;7.33;;;;;25.29;39.52;101958.16;5106635;27;45584;-72
2022/05/05 16:21:51;;;;;;;;;10.00;8.33;;;;;25.31;40.04;101963.44;5099701;27;45592;-72
2022/05/05 16:24:16;;;;;;;;;6.00;6.00;;;;;25.34;39.78;101958.56;5107134;27;45313;-72
2022/05/05 16:32:10;;;;;;;;;6.00;5.00;;;;;25.48;39.78;101972.66;5100799;27;45428;-72
2022/05/05 16:34:36;;;;;;;;;8.33;6.00;;;;;25.48;40.05;101969.94;5097620;27;45762;-72
2022/05/05 16:37:02;;;;;;;;;7.33;7.00;;;;;25.48;40.29;101969.94;5094778;27;46260;-74
2022/05/05 16:39:27;;;;;;;;;9.00;5.33;;;;;25.49;39.96;101969.78;5096605;27;45447;-71
2022/05/05 16:41:52;;;;;;;;;8.00;6.33;;;;;25.48;39.76;101970.81;5105143;27;58447;-72
2022/05/05 16:44:18;;;;;;;;;6.67;5.33;;;;;25.50;39.91;101976.94;5102980;27;45524;-77
2022/05/05 16:46:44;;;;;;;;;6.00;6.00;;;;;25.50;40.45;101968.78;5099096;27;45594;-76
2022/05/05 16:49:10;;;;;;;;;6.00;6.00;;;;;25.50;40.15;101971.50;5096558;27;45477;-77
2022/05/05 16:51:35;;;;;;;;;8.33;7.00;;;;;25.50;41.18;101971.50;5098767;27;45511;-74
2022/05/05 16:54:00;;;;;;;;;10.33;5.00;;;;;25.43;40.92;101974.97;5111861;27;45627;-76
2022/05/05 16:56:26;;;;;;;;;6.00;6.00;;;;;25.91;41.66;101976.53;5044174;27;45604;-77
2022/05/05 16:58:51;;;;;;;;;7.00;5.00;;;;;26.68;41.31;101969.69;5024458;27;45900;-76
2022/05/05 17:01:16;;;;;;;;;9.33;5.33;;;;;27.18;40.92;101983.59;5033909;27;55622;-76
2022/05/05 17:03:42;;;;;;;;;5.00;5.00;;;;;27.50;40.51;101981.16;5024084;27;46033;-76
2022/05/05 17:06:07;;;;;;;;;5.67;5.00;;;;;27.70;39.58;101984.50;5031305;27;45686;-76
2022/05/05 17:08:32;;;;;;;;;5.67;5.67;;;;;27.90;39.95;101980.63;5019992;27;45603;-76
2022/05/05 17:10:59;;;;;;;;;6.33;6.33;;;;;28.02;39.46;101988.31;5025899;27;45692;-77
2022/05/05 17:13:25;;;;;;;;;6.00;5.67;;;;;28.14;39.48;101979.78;5036102;27;45387;-74
2022/05/05 17:15:51;;;;;;;;;7.67;6.67;;;;;28.21;38.65;101983.53;5049902;27;45642;-74
2022/05/05 17:18:16;;;;;;;;;7.33;6.00;;;;;28.24;39.00;101974.16;5036756;27;45536;-74
2022/05/05 17:20:42;;;;;;;;;7.00;6.67;;;;;28.23;38.25;101980.63;5068513;27;45510;-75
2022/05/05 17:23:07;;;;;;;;;6.67;6.00;;;;;28.20;38.43;101981.81;5057256;27;45430;-82
2022/05/05 17:25:33;;;;;;;;;5.67;5.67;;;;;28.22;37.90;101987.13;5059693;27;45455;-78
2022/05/05 17:27:58;;;;;;;;;5.67;4.67;;;;;28.25;38.04;101981.34;5042972;27;45737;-81
2022/05/05 17:30:23;;;;;;;;;7.00;5.33;;;;;28.28;38.61;101989.19;5046531;27;45985;-78
2022/05/05 17:32:49;;;;;;;;;8.33;6.00;;;;;28.33;38.37;101986.81;5046691;27;45525;-77
2022/05/05 17:35:15;;;;;;;;;6.00;5.00;;;;;28.39;37.48;101985.25;5047823;27;46037;-79
2022/05/05 17:37:40;;;;;;;;;4.33;4.33;;;;;28.45;37.83;101979.13;5043207;27;45356;-79
2022/05/05 17:40:06;;;;;;;;;7.00;5.00;;;;;28.50;37.43;101984.94;5059313;27;45541;-75
2022/05/05 17:42:31;;;;;;;;;5.33;5.33;;;;;28.54;37.33;101982.69;5064924;27;45460;-75
2022/05/05 17:50:31;;;;;;;;;6.67;6.00;;;;;28.48;36.84;101983.41;5056575;27;45478;-74
2022/05/05 17:53:02;;;;;;;;;7.00;6.00;;;;;28.44;36.71;101995.69;5059458;27;45621;-75
2022/05/05 17:55:29;;;;;;;;;10.33;7.33;;;;;28.39;37.34;101996.19;5063579;27;45649;-76
2022/05/05 17:57:57;;;;;;;;;7.00;7.00;;;;;28.34;37.22;102004.91;5035256;28;45468;-75
2022/05/05 18:00:23;;;;;;;;;5.33;5.33;;;;;28.30;37.11;102003.53;5047032;28;46945;-76
2022/05/05 18:02:48;;;;;;;;;6.33;6.00;;;;;28.28;37.08;102000.09;5040487;28;48634;-76
2022/05/05 18:05:13;;;;;;;;;5.33;5.33;;;;;28.26;36.98;102002.16;5034533;27;45941;-76
2022/05/05 18:07:39;;;;;;;;;6.67;6.33;;;;;28.24;37.29;102007.78;5038133;27;45470;-76
2022/05/05 18:10:05;;;;;;;;;4.67;4.00;;;;;28.24;37.25;102007.78;5040546;27;45503;-76
2022/05/05 18:12:31;;;;;;;;;7.67;7.33;;;;;28.25;36.86;102005.91;5033547;28;45425;-76
2022/05/05 18:14:57;;;;;;;;;9.00;5.00;;;;;28.25;36.24;102004.03;5037608;28;45419;-76
2022/05/05 18:17:23;;;;;;;;;6.33;6.33;;;;;28.25;36.25;102008.66;5047499;27;45480;-75
2022/05/05 18:19:48;;;;;;;;;3.33;3.33;;;;;28.24;36.17;102009.66;5043764;27;46568;-76
2022/05/05 18:22:14;;;;;;;;;8.00;7.00;;;;;28.19;36.58;102015.59;5036469;28;54651;-77
